Time;durP1;ratioP1;P1;durP2;ratioP2;P2;SDS_P1;SDS_P2;PMS_P1;PMS_P2;Temp;Humidity;BMP_temperature;BMP_pressure;BME280_temperature;BME280_humidity;BME280_pressure;Samples;Min_cycle;Max_cycle;Signal;HPM_P1;HPM_P2
2023/11/09 00:01:30;;;;;;;2.80;1.00;;;7.20;99.90;;;;;;4108607;28;20559;-80
2023/11/09 00:03:36;;;;;;;2.00;0.93;;;7.20;99.90;;;;;;4113788;28;20219;-78
2023/11/09 00:05:37;;;;;;;2.90;1.23;;;7.20;99.90;;;;;;4116123;28;20771;-81
2023/11/09 00:07:42;;;;;;;2.03;1.00;;;7.60;99.90;;;;;;4112887;28;20197;-79
2023/11/09 00:09:52;;;;;;;2.00;1.00;;;7.30;99.90;;;;;;4113551;28;20210;-78
2023/11/09 00:11:56;;;;;;;3.77;1.30;;;8.10;99.90;;;;;;4110107;28;20564;-80
2023/11/09 00:13:58;;;;;;;1.90;0.90;;;7.30;99.90;;;;;;4109861;28;20205;-77
2023/11/09 00:16:01;;;;;;;2.13;0.97;;;7.30;99.90;;;;;;4106387;28;20583;-77
2023/11/09 00:18:03;;;;;;;2.03;1.07;;;7.30;99.90;;;;;;4115327;28;20641;-78
2023/11/09 00:20:07;;;;;;;2.70;1.10;;;7.30;99.90;;;;;;4107429;28;20277;-82
2023/11/09 00:22:09;;;;;;;2.70;1.17;;;7.30;99.90;;;;;;4105854;28;20292;-79
2023/11/09 00:24:11;;;;;;;2.73;0.90;;;7.30;99.90;;;;;;4107330;28;20224;-78
2023/11/09 00:26:14;;;;;;;2.60;1.03;;;7.30;99.90;;;;;;4109791;28;20213;-77
2023/11/09 00:28:16;;;;;;;1.73;0.93;;;7.40;99.90;;;;;;4108542;28;20221;-77
2023/11/09 00:30:18;;;;;;;1.90;0.90;;;7.40;99.90;;;;;;4110469;28;20605;-77
2023/11/09 00:32:22;;;;;;;4.00;1.10;;;7.50;99.90;;;;;;4117659;28;20218;-77
2023/11/09 00:34:26;;;;;;;4.03;1.40;;;7.40;99.90;;;;;;4110442;28;20241;-78
2023/11/09 00:36:28;;;;;;;2.60;1.10;;;7.50;99.90;;;;;;4111134;28;20223;-77
2023/11/09 00:38:30;;;;;;;2.37;1.10;;;7.40;99.90;;;;;;4107513;28;20266;-77
2023/11/09 00:40:31;;;;;;;2.70;0.90;;;7.90;99.90;;;;;;4111350;28;20197;-77
2023/11/09 00:42:33;;;;;;;3.20;0.97;;;7.50;99.90;;;;;;4111331;28;20233;-80
2023/11/09 00:44:36;;;;;;;1.03;0.87;;;7.50;99.90;;;;;;4114236;28;20241;-78
2023/11/09 00:46:38;;;;;;;1.20;0.90;;;7.50;99.90;;;;;;4116386;28;20205;-78
2023/11/09 00:48:41;;;;;;;2.67;1.20;;;7.50;99.90;;;;;;4109548;28;20700;-79
2023/11/09 00:50:43;;;;;;;2.20;0.90;;;7.90;99.90;;;;;;4105214;28;20209;-78
2023/11/09 00:52:45;;;;;;;2.03;0.90;;;7.40;99.90;;;;;;4110192;28;20259;-77
2023/11/09 00:54:47;;;;;;;1.63;1.10;;;7.70;99.90;;;;;;4113412;28;20316;-78
2023/11/09 00:56:48;;;;;;;2.27;1.10;;;7.50;99.90;;;;;;4110595;28;20259;-81
2023/11/09 00:58:50;;;;;;;1.63;0.90;;;7.50;99.90;;;;;;4111244;28;20224;-79
2023/11/09 01:00:52;;;;;;;3.33;1.40;;;7.50;99.90;;;;;;4114134;28;20217;-79
2023/11/09 01:02:54;;;;;;;2.33;1.03;;;7.50;99.90;;;;;;4116592;28;20205;-79
2023/11/09 01:04:57;;;;;;;2.20;1.00;;;7.50;99.90;;;;;;4110693;28;20231;-79
2023/11/09 01:07:00;;;;;;;1.77;0.90;;;7.60;99.90;;;;;;4113740;28;20233;-80
2023/11/09 01:09:01;;;;;;;2.27;1.00;;;7.60;99.90;;;;;;4104543;28;20211;-80
2023/11/09 01:11:06;;;;;;;2.37;0.90;;;8.00;99.90;;;;;;4105755;28;20206;-79
2023/11/09 01:13:08;;;;;;;1.10;0.80;;;7.60;99.90;;;;;;4116830;28;20714;-80
2023/11/09 01:15:10;;;;;;;2.50;1.03;;;7.80;99.90;;;;;;4115270;28;20245;-80
2023/11/09 01:17:12;;;;;;;1.13;0.50;;;7.60;99.90;;;;;;4111440;28;20210;-79
2023/11/09 01:19:15;;;;;;;2.63;0.90;;;7.70;99.90;;;;;;4111318;28;20226;-80
2023/11/09 01:21:18;;;;;;;2.73;1.00;;;7.70;99.90;;;;;;4115250;28;20220;-79
2023/11/09 01:23:20;;;;;;;3.67;1.10;;;7.70;99.90;;;;;;4111732;28;20209;-80
2023/11/09 01:25:21;;;;;;;2.27;1.10;;;7.70;99.90;;;;;;4110812;28;20230;-78
2023/11/09 01:27:23;;;;;;;3.23;1.07;;;7.70;99.90;;;;;;4114104;28;20336;-78
2023/11/09 01:29:25;;;;;;;2.47;0.90;;;7.70;99.90;;;;;;4109320;28;20208;-78
2023/11/09 01:31:26;;;;;;;1.43;0.87;;;7.80;99.90;;;;;;4111112;28;20284;-78
2023/11/09 01:33:29;;;;;;;1.83;0.90;;;7.80;99.90;;;;;;4110940;28;20570;-80
2023/11/09 01:35:31;;;;;;;1.43;0.80;;;7.90;99.90;;;;;;4112941;28;20224;-79
2023/11/09 01:37:35;;;;;;;1.57;0.90;;;7.90;99.90;;;;;;4114827;28;20208;-77
2023/11/09 01:39:38;;;;;;;4.00;1.00;;;7.90;99.90;;;;;;4117177;28;20738;-79
2023/11/09 01:41:42;;;;;;;4.67;0.83;;;7.90;99.90;;;;;;4114149;28;20214;-79
2023/11/09 01:43:55;;;;;;;1.43;0.90;;;8.00;99.90;;;;;;4110470;28;20291;-77
2023/11/09 01:45:57;;;;;;;2.60;0.80;;;8.00;99.90;;;;;;4108651;28;20210;-80
2023/11/09 01:47:58;;;;;;;1.27;0.77;;;8.00;99.90;;;;;;4111756;28;20203;-78
2023/11/09 01:50:00;;;;;;;3.30;1.00;;;8.00;99.90;;;;;;4114542;28;20240;-77
2023/11/09 01:52:03;;;;;;;1.47;0.80;;;8.00;99.90;;;;;;4109198;28;20293;-78
2023/11/09 01:54:07;;;;;;;1.63;0.80;;;8.10;99.90;;;;;;4112740;28;20207;-81
2023/11/09 01:56:10;;;;;;;2.07;0.90;;;8.10;99.90;;;;;;4117281;28;20205;-81
2023/11/09 01:58:13;;;;;;;0.90;0.80;;;8.10;99.90;;;;;;4110352;28;20240;-77
2023/11/09 02:00:16;;;;;;;3.73;0.93;;;8.20;99.90;;;;;;4117475;28;20218;-79
2023/11/09 02:02:18;;;;;;;1.83;1.00;;;8.20;99.90;;;;;;4109380;28;20215;-79
2023/11/09 02:04:21;;;;;;;2.13;1.00;;;8.20;99.90;;;;;;4117278;28;20229;-78
2023/11/09 02:06:23;;;;;;;3.53;0.80;;;8.20;99.90;;;;;;4115985;28;20582;-82
2023/11/09 02:08:25;;;;;;;2.63;1.20;;;8.20;99.90;;;;;;4119593;28;20207;-81
2023/11/09 02:10:30;;;;;;;1.43;0.83;;;8.20;99.90;;;;;;4119142;28;20214;-79
2023/11/09 02:12:32;;;;;;;1.43;0.77;;;8.20;99.90;;;;;;4114037;28;20670;-78
2023/11/09 02:14:33;;;;;;;2.07;0.90;;;8.20;99.90;;;;;;4118687;28;20305;-77
2023/11/09 02:16:35;;;;;;;4.90;0.80;;;8.30;99.90;;;;;;4112621;28;20214;-77
2023/11/09 02:18:37;;;;;;;2.70;0.90;;;8.30;99.90;;;;;;4118236;28;20285;-78
2023/11/09 02:20:39;;;;;;;1.37;0.83;;;8.30;99.90;;;;;;4112814;28;21514;-78
2023/11/09 02:22:44;;;;;;;1.70;1.10;;;8.30;99.90;;;;;;4116633;28;20215;-81
2023/11/09 02:24:50;;;;;;;1.20;0.80;;;8.30;99.90;;;;;;4112291;28;20231;-82
2023/11/09 02:26:55;;;;;;;1.03;0.80;;;8.30;99.90;;;;;;4116149;28;20219;-77
2023/11/09 02:28:57;;;;;;;2.17;1.03;;;8.30;99.90;;;;;;4112357;28;20284;-77
2023/11/09 02:30:57;;;;;;;2.33;0.90;;;8.30;99.90;;;;;;4110695;28;20206;-77
2023/11/09 02:33:01;;;;;;;2.80;1.10;;;8.30;99.90;;;;;;4114068;28;20614;-82
2023/11/09 02:35:04;;;;;;;2.40;1.27;;;8.40;99.90;;;;;;4107346;28;20239;-80
2023/11/09 02:37:07;;;;;;;3.37;1.30;;;8.70;99.90;;;;;;4116010;28;20210;-77
2023/11/09 02:39:12;;;;;;;1.97;0.90;;;8.40;99.90;;;;;;4117200;28;20238;-78
2023/11/09 02:41:15;;;;;;;2.50;1.20;;;8.40;99.90;;;;;;4115571;28;20273;-79
2023/11/09 02:43:17;;;;;;;1.73;0.90;;;8.40;99.90;;;;;;4109553;28;20208;-77
2023/11/09 02:45:18;;;;;;;2.20;0.90;;;8.50;99.90;;;;;;4112556;28;20704;-78
2023/11/09 02:47:20;;;;;;;3.10;0.97;;;8.40;99.90;;;;;;4113123;28;20207;-81
2023/11/09 02:49:22;;;;;;;3.17;0.87;;;8.40;99.90;;;;;;4111449;28;20671;-81
2023/11/09 02:51:24;;;;;;;1.63;1.00;;;8.40;99.90;;;;;;4114254;28;20230;-81
2023/11/09 02:53:26;;;;;;;1.73;0.93;;;8.40;99.90;;;;;;4112652;28;20278;-78
2023/11/09 02:55:28;;;;;;;5.30;1.57;;;8.40;99.90;;;;;;4109947;28;20302;-78
2023/11/09 02:57:30;;;;;;;2.23;1.10;;;8.40;99.90;;;;;;4109434;28;20209;-80
2023/11/09 02:59:32;;;;;;;1.57;0.93;;;8.50;99.90;;;;;;4112111;28;20313;-81
2023/11/09 03:01:35;;;;;;;2.40;0.87;;;8.60;99.90;;;;;;4119048;28;20210;-80
2023/11/09 03:03:37;;;;;;;2.30;1.30;;;8.40;99.90;;;;;;4105243;28;20279;-81
2023/11/09 03:05:39;;;;;;;3.30;1.10;;;8.40;99.90;;;;;;4108325;28;20246;-80
2023/11/09 03:07:41;;;;;;;1.63;1.07;;;8.40;99.90;;;;;;4108362;28;20227;-80
2023/11/09 03:09:44;;;;;;;3.07;1.10;;;8.40;99.90;;;;;;4108067;28;20221;-79
2023/11/09 03:11:46;;;;;;;1.93;1.00;;;8.40;99.90;;;;;;4114697;28;20292;-78
2023/11/09 03:13:50;;;;;;;4.70;1.27;;;8.30;99.90;;;;;;4108936;28;20254;-77
2023/11/09 03:15:52;;;;;;;2.63;1.20;;;8.40;99.90;;;;;;4110884;28;20222;-78
2023/11/09 03:17:54;;;;;;;1.97;1.20;;;8.30;99.90;;;;;;4113195;28;20218;-77
2023/11/09 03:19:57;;;;;;;3.03;1.10;;;8.30;99.90;;;;;;4107379;28;20289;-81
2023/11/09 03:21:59;;;;;;;1.37;0.90;;;8.30;99.90;;;;;;4108465;28;20216;-81
2023/11/09 03:24:01;;;;;;;1.73;1.00;;;8.30;99.90;;;;;;4110470;28;20242;-79
2023/11/09 03:26:04;;;;;;;2.90;0.90;;;8.30;99.90;;;;;;4117472;28;20265;-79
2023/11/09 03:28:06;;;;;;;3.77;1.20;;;8.20;99.90;;;;;;4114234;28;20274;-78
2023/11/09 03:30:14;;;;;;;1.30;0.80;;;8.10;99.90;;;;;;4113958;28;20223;-78
2023/11/09 03:32:16;;;;;;;2.53;1.30;;;8.20;99.90;;;;;;4115369;28;20590;-78
2023/11/09 03:34:20;;;;;;;4.50;1.53;;;8.10;99.90;;;;;;4118347;28;20239;-77
2023/11/09 03:36:22;;;;;;;3.37;1.00;;;8.20;99.90;;;;;;4114153;28;20202;-78
2023/11/09 03:38:24;;;;;;;2.13;1.20;;;8.10;99.90;;;;;;4113752;28;20210;-80
2023/11/09 03:40:26;;;;;;;2.60;1.30;;;8.10;99.90;;;;;;4116157;28;20216;-79
2023/11/09 03:42:28;;;;;;;4.30;1.13;;;8.20;99.90;;;;;;4116026;28;20214;-78
2023/11/09 03:44:36;;;;;;;8.67;2.63;;;8.20;99.90;;;;;;4115865;28;20235;-80
2023/11/09 03:46:43;;;;;;;2.13;1.50;;;8.20;99.90;;;;;;4113723;28;20205;-77
2023/11/09 03:48:45;;;;;;;4.67;1.40;;;8.10;99.90;;;;;;4111792;28;20258;-78
2023/11/09 03:50:46;;;;;;;4.80;1.20;;;8.30;99.90;;;;;;4116411;28;20211;-78
2023/11/09 03:52:50;;;;;;;2.77;1.20;;;8.20;99.90;;;;;;4109925;28;20262;-81
2023/11/09 03:54:52;;;;;;;1.90;1.10;;;8.20;99.90;;;;;;4111397;28;20233;-77
2023/11/09 03:56:54;;;;;;;3.87;1.23;;;8.20;99.90;;;;;;4110907;28;20348;-79
2023/11/09 03:58:56;;;;;;;2.77;1.30;;;8.20;99.90;;;;;;4109918;28;20749;-81
2023/11/09 04:00:58;;;;;;;4.00;1.70;;;8.20;99.90;;;;;;4107626;28;20218;-80
2023/11/09 04:03:01;;;;;;;5.40;1.10;;;8.20;99.90;;;;;;4106190;28;20219;-78
2023/11/09 04:05:03;;;;;;;3.03;1.20;;;8.30;99.90;;;;;;4110345;28;20238;-77
2023/11/09 04:07:05;;;;;;;2.60;1.03;;;8.00;99.90;;;;;;4114802;28;20852;-82
2023/11/09 04:09:09;;;;;;;2.57;1.13;;;9.10;99.90;;;;;;4114828;28;20206;-79
2023/11/09 04:11:11;;;;;;;3.00;1.00;;;8.30;99.90;;;;;;4111873;28;20753;-77
2023/11/09 04:13:13;;;;;;;2.33;1.03;;;8.40;99.90;;;;;;4107872;28;20305;-77
2023/11/09 04:15:15;;;;;;;2.53;1.17;;;9.20;99.90;;;;;;4114134;28;20741;-77
2023/11/09 04:17:18;;;;;;;2.03;1.10;;;8.30;99.90;;;;;;4112475;28;20218;-77
2023/11/09 04:19:28;;;;;;;2.93;1.40;;;8.40;99.90;;;;;;4236775;27;20592;-76
2023/11/09 04:21:30;;;;;;;3.53;1.30;;;8.40;99.90;;;;;;4237444;28;20202;-76
2023/11/09 04:23:32;;;;;;;2.10;0.90;;;8.40;99.90;;;;;;4234805;28;20217;-78
2023/11/09 04:25:33;;;;;;;5.33;1.63;;;8.40;99.90;;;;;;4236700;28;20665;-78
2023/11/09 04:27:36;;;;;;;1.87;1.20;;;8.40;99.90;;;;;;4237379;28;20296;-77
2023/11/09 04:29:37;;;;;;;2.50;1.10;;;8.40;99.90;;;;;;4237013;28;20197;-80
2023/11/09 04:31:42;;;;;;;3.23;1.20;;;8.40;99.90;;;;;;4239174;28;20209;-78
2023/11/09 04:33:43;;;;;;;5.20;1.20;;;8.80;99.90;;;;;;4232620;28;20247;-78
2023/11/09 04:35:46;;;;;;;2.00;1.00;;;8.40;99.90;;;;;;4241505;28;20231;-78
2023/11/09 04:37:54;;;;;;;3.23;1.00;;;8.40;99.90;;;;;;4243155;28;20257;-79
2023/11/09 04:39:58;;;;;;;3.23;1.10;;;8.40;99.90;;;;;;4248220;28;20219;-79
2023/11/09 04:42:04;;;;;;;2.77;1.03;;;8.40;99.90;;;;;;4248390;28;20200;-81
2023/11/09 04:44:08;;;;;;;1.90;1.10;;;8.40;99.90;;;;;;4249236;27;20192;-79
2023/11/09 04:46:14;;;;;;;2.10;0.93;;;8.50;99.90;;;;;;4244456;28;20206;-79
2023/11/09 04:48:20;;;;;;;1.50;1.00;;;8.50;99.90;;;;;;4249984;27;20273;-78
2023/11/09 04:50:28;;;;;;;2.83;1.20;;;8.50;99.90;;;;;;4241327;27;20201;-78
2023/11/09 04:52:43;;;;;;;1.97;1.10;;;8.50;99.90;;;;;;4251904;27;20633;-82
2023/11/09 04:54:46;;;;;;;1.60;1.00;;;8.50;99.90;;;;;;4242771;28;20221;-79
2023/11/09 04:58:44;;;;;;;2.50;1.10;;;8.50;99.90;;;;;;4238140;27;20259;-79
2023/11/09 05:08:42;;;;;;;1.93;1.10;;;8.50;99.90;;;;;;4238496;27;20205;-78
2023/11/09 05:10:44;;;;;;;1.70;1.10;;;8.50;99.90;;;;;;4237916;28;20765;-81
2023/11/09 05:12:48;;;;;;;1.93;1.00;;;8.50;99.90;;;;;;4235631;27;20218;-78
2023/11/09 05:14:51;;;;;;;5.80;1.10;;;8.50;99.90;;;;;;4238571;28;20240;-80
2023/11/09 05:16:53;;;;;;;2.00;1.30;;;8.50;99.90;;;;;;4238067;28;20260;-78
2023/11/09 05:18:54;;;;;;;2.00;1.00;;;8.50;99.90;;;;;;4238166;27;20229;-78
2023/11/09 05:20:58;;;;;;;3.17;1.13;;;8.50;99.90;;;;;;4232280;28;20713;-80
2023/11/09 05:23:00;;;;;;;5.87;1.60;;;8.50;99.90;;;;;;4233462;27;20217;-80
2023/11/09 05:25:04;;;;;;;2.07;1.07;;;8.50;99.90;;;;;;4234973;28;20230;-81
2023/11/09 05:27:07;;;;;;;1.57;1.20;;;8.50;99.90;;;;;;4240042;28;20595;-79
2023/11/09 05:29:09;;;;;;;3.63;1.03;;;8.50;99.90;;;;;;4233467;27;20653;-79
2023/11/09 05:31:12;;;;;;;1.67;1.07;;;8.50;99.90;;;;;;4220865;28;20251;-81
2023/11/09 05:33:13;;;;;;;3.47;1.17;;;8.50;99.90;;;;;;4220754;28;20275;-77
2023/11/09 05:35:17;;;;;;;2.80;1.30;;;8.50;99.90;;;;;;4227469;28;20235;-78
2023/11/09 05:37:19;;;;;;;3.73;1.10;;;8.50;99.90;;;;;;4222760;28;20689;-79
2023/11/09 05:39:22;;;;;;;5.87;1.40;;;8.50;99.90;;;;;;4222197;28;20230;-79
2023/11/09 05:41:29;;;;;;;3.73;1.30;;;8.80;99.90;;;;;;4219269;28;20276;-79
2023/11/09 05:43:30;;;;;;;1.97;1.10;;;8.50;99.90;;;;;;4215926;28;20262;-80
2023/11/09 05:45:32;;;;;;;2.40;1.13;;;8.50;99.90;;;;;;4222741;28;20219;-80
2023/11/09 05:47:34;;;;;;;8.60;2.20;;;8.50;99.90;;;;;;4220416;28;20215;-78
2023/11/09 05:49:36;;;;;;;3.80;1.03;;;8.50;99.90;;;;;;4223975;28;20202;-79
2023/11/09 05:51:39;;;;;;;3.70;1.80;;;8.50;99.90;;;;;;4223695;28;20202;-79
2023/11/09 05:53:41;;;;;;;5.30;1.90;;;8.50;99.90;;;;;;4221451;28;20210;-79
2023/11/09 05:55:43;;;;;;;3.03;1.30;;;8.50;99.90;;;;;;4220139;28;20296;-79
2023/11/09 05:57:46;;;;;;;2.37;1.10;;;8.50;99.90;;;;;;4223029;28;20217;-81
2023/11/09 05:59:47;;;;;;;2.40;1.00;;;8.50;99.90;;;;;;4224981;28;20234;-79
2023/11/09 06:01:50;;;;;;;3.07;1.20;;;8.50;99.90;;;;;;4219771;28;20261;-80
2023/11/09 06:03:52;;;;;;;11.57;1.50;;;8.50;99.90;;;;;;4221688;28;20210;-79
2023/11/09 06:05:54;;;;;;;4.60;1.07;;;8.50;99.90;;;;;;4222625;28;20748;-80
2023/11/09 06:07:56;;;;;;;4.13;1.27;;;8.50;99.90;;;;;;4219816;28;20207;-81
2023/11/09 06:09:58;;;;;;;2.83;1.00;;;8.50;99.90;;;;;;4222611;28;20203;-80
2023/11/09 06:11:59;;;;;;;1.60;1.00;;;8.50;99.90;;;;;;4221164;28;20208;-80
2023/11/09 06:14:03;;;;;;;2.10;1.27;;;8.50;99.90;;;;;;4220304;28;20211;-80
2023/11/09 06:16:07;;;;;;;6.93;1.50;;;8.50;99.90;;;;;;4216770;28;20671;-80
2023/11/09 06:18:10;;;;;;;2.53;1.17;;;8.40;99.90;;;;;;4221717;28;20321;-78
2023/11/09 06:20:14;;;;;;;4.73;1.90;;;8.50;99.90;;;;;;4222489;28;20209;-80
2023/11/09 06:22:17;;;;;;;3.83;1.80;;;8.50;99.90;;;;;;4216732;28;20518;-80
2023/11/09 06:24:19;;;;;;;2.33;1.13;;;8.50;99.90;;;;;;4221659;28;20235;-79
2023/11/09 06:26:24;;;;;;;1.53;1.00;;;8.50;99.90;;;;;;4222280;28;20215;-80
2023/11/09 06:28:26;;;;;;;3.93;1.30;;;8.50;99.90;;;;;;4219734;28;20211;-82
2023/11/09 06:30:29;;;;;;;5.13;1.70;;;8.50;99.90;;;;;;4223281;27;20685;-80
2023/11/09 06:32:33;;;;;;;5.40;1.37;;;8.70;99.90;;;;;;4221408;28;20204;-80
2023/11/09 06:34:35;;;;;;;4.37;1.30;;;8.50;99.90;;;;;;4219337;28;20219;-82
2023/11/09 06:36:37;;;;;;;2.33;1.23;;;8.50;99.90;;;;;;4221623;28;20218;-82
2023/11/09 06:38:39;;;;;;;2.70;1.10;;;8.50;99.90;;;;;;4220493;28;20927;-81
2023/11/09 06:40:42;;;;;;;1.93;1.10;;;8.50;99.90;;;;;;4223928;28;20218;-80
2023/11/09 06:42:45;;;;;;;1.83;1.13;;;8.50;99.90;;;;;;4220917;28;20219;-82
2023/11/09 06:44:47;;;;;;;2.40;1.10;;;8.50;99.90;;;;;;4217773;28;20233;-78
2023/11/09 06:46:50;;;;;;;1.73;1.17;;;8.20;99.90;;;;;;4219451;28;20279;-79
2023/11/09 06:48:52;;;;;;;1.83;1.30;;;8.50;99.90;;;;;;4221338;28;20210;-81
2023/11/09 06:50:54;;;;;;;4.77;1.60;;;8.60;99.90;;;;;;4220302;28;20211;-81
2023/11/09 06:52:56;;;;;;;3.80;1.40;;;8.50;99.90;;;;;;4226849;28;20215;-81
2023/11/09 06:55:00;;;;;;;3.80;1.33;;;8.60;99.90;;;;;;4224780;27;20233;-83
2023/11/09 06:57:03;;;;;;;3.87;1.23;;;8.50;99.90;;;;;;4220567;28;20199;-82
2023/11/09 06:59:05;;;;;;;5.73;2.47;;;8.50;99.90;;;;;;4225503;27;20560;-82
2023/11/09 07:01:07;;;;;;;1.17;1.03;;;8.50;99.90;;;;;;4223222;28;20267;-81
2023/11/09 07:03:10;;;;;;;1.20;1.00;;;8.60;99.90;;;;;;4218861;28;20231;-82
2023/11/09 07:05:13;;;;;;;2.90;1.20;;;8.60;99.90;;;;;;4221845;28;20663;-81
2023/11/09 07:07:14;;;;;;;2.03;1.20;;;8.60;99.90;;;;;;4227038;28;20214;-83
2023/11/09 07:09:18;;;;;;;3.07;1.40;;;8.60;99.90;;;;;;4223149;28;20218;-84
2023/11/09 07:11:20;;;;;;;3.60;1.30;;;8.60;99.90;;;;;;4220816;28;20220;-83
2023/11/09 07:13:21;;;;;;;3.47;1.10;;;8.60;99.90;;;;;;4229675;28;20206;-81
2023/11/09 07:15:25;;;;;;;1.93;0.93;;;8.60;99.90;;;;;;4220838;28;20298;-78
2023/11/09 07:17:27;;;;;;;2.10;1.20;;;8.60;99.90;;;;;;4225291;28;20213;-79
2023/11/09 07:19:31;;;;;;;1.73;1.07;;;8.60;99.90;;;;;;4222935;28;20314;-79
2023/11/09 07:21:39;;;;;;;1.30;0.80;;;8.70;99.90;;;;;;4224203;28;20214;-79
2023/11/09 07:23:41;;;;;;;1.27;1.00;;;8.60;99.90;;;;;;4223277;28;20206;-81
2023/11/09 07:25:46;;;;;;;2.20;1.00;;;8.70;99.90;;;;;;4219180;28;20218;-82
2023/11/09 07:27:48;;;;;;;1.27;0.90;;;8.70;99.90;;;;;;4219897;28;20231;-83
2023/11/09 07:29:51;;;;;;;2.07;1.00;;;8.70;99.90;;;;;;4222923;28;20298;-82
2023/11/09 07:31:53;;;;;;;3.20;1.20;;;8.70;99.90;;;;;;4219639;28;20690;-83
2023/11/09 07:33:54;;;;;;;1.73;1.10;;;8.70;99.90;;;;;;4219786;28;20219;-82
2023/11/09 07:35:59;;;;;;;2.13;0.93;;;8.80;99.90;;;;;;4222560;28;20235;-82
2023/11/09 07:38:01;;;;;;;3.23;1.37;;;8.80;99.90;;;;;;4220866;28;20238;-80
2023/11/09 07:40:04;;;;;;;3.07;1.50;;;8.90;99.90;;;;;;4214093;28;20231;-82
2023/11/09 07:42:06;;;;;;;4.57;1.40;;;8.80;99.90;;;;;;4226227;28;20233;-81
2023/11/09 07:44:08;;;;;;;3.03;1.03;;;8.80;99.90;;;;;;4219704;28;20207;-82
2023/11/09 07:46:10;;;;;;;2.23;1.23;;;8.90;99.90;;;;;;4219881;28;20211;-82
2023/11/09 07:48:13;;;;;;;2.10;1.17;;;8.90;99.90;;;;;;4224633;28;20210;-81
2023/11/09 07:50:16;;;;;;;4.80;1.60;;;8.70;99.90;;;;;;4225595;28;20199;-82
2023/11/09 07:52:19;;;;;;;2.70;1.03;;;8.90;99.90;;;;;;4224855;28;20209;-80
2023/11/09 07:54:22;;;;;;;2.57;1.20;;;9.00;99.90;;;;;;4221885;28;20229;-81
2023/11/09 07:56:33;;;;;;;3.73;1.10;;;9.40;99.90;;;;;;4222930;28;20253;-82
2023/11/09 07:58:35;;;;;;;3.83;0.90;;;9.00;99.90;;;;;;4227109;28;20229;-81
2023/11/09 08:00:37;;;;;;;2.40;1.00;;;9.10;99.90;;;;;;4218272;28;20208;-81
2023/11/09 08:02:39;;;;;;;2.50;0.93;;;9.40;99.90;;;;;;4222911;28;20200;-81
2023/11/09 08:04:41;;;;;;;2.03;1.27;;;9.20;99.90;;;;;;4220528;28;20235;-80
2023/11/09 08:06:43;;;;;;;3.47;1.10;;;9.20;99.90;;;;;;4225615;28;20244;-82
2023/11/09 08:08:47;;;;;;;2.90;1.10;;;9.20;99.90;;;;;;4220861;28;20227;-83
2023/11/09 08:10:49;;;;;;;2.17;0.73;;;9.30;99.90;;;;;;4222292;28;20207;-79
2023/11/09 08:12:52;;;;;;;1.70;0.97;;;9.30;99.90;;;;;;4225321;28;20277;-79
2023/11/09 08:14:54;;;;;;;2.80;1.20;;;9.40;99.90;;;;;;4225391;28;20319;-84
2023/11/09 08:16:56;;;;;;;1.80;1.10;;;9.30;99.90;;;;;;4227068;28;20211;-81
2023/11/09 08:19:03;;;;;;;2.07;0.97;;;9.40;99.90;;;;;;4228502;28;20224;-80
2023/11/09 08:21:05;;;;;;;4.03;1.07;;;9.50;99.90;;;;;;4217876;28;20577;-81
2023/11/09 08:23:08;;;;;;;2.13;0.90;;;9.50;99.90;;;;;;4222284;28;20240;-81
2023/11/09 08:25:12;;;;;;;3.00;1.20;;;9.50;99.90;;;;;;4221703;28;20609;-80
2023/11/09 08:27:25;;;;;;;3.43;0.90;;;9.50;99.90;;;;;;4224020;28;20212;-81
2023/11/09 08:29:28;;;;;;;3.67;1.60;;;9.60;99.90;;;;;;4223804;28;20210;-79
2023/11/09 08:31:33;;;;;;;2.43;1.03;;;9.60;99.90;;;;;;4221592;28;20260;-78
2023/11/09 08:33:35;;;;;;;2.50;1.20;;;9.70;99.90;;;;;;4220285;28;20241;-79
2023/11/09 08:35:37;;;;;;;1.93;1.13;;;9.70;99.90;;;;;;4224077;28;20258;-79
2023/11/09 08:37:40;;;;;;;1.60;1.00;;;9.70;99.90;;;;;;4225389;28;20210;-80
2023/11/09 08:39:43;;;;;;;2.47;1.00;;;9.80;99.90;;;;;;4221751;28;20325;-79
2023/11/09 08:41:49;;;;;;;1.80;1.00;;;9.80;99.90;;;;;;4221514;28;20208;-80
2023/11/09 08:43:51;;;;;;;3.97;1.20;;;9.80;99.90;;;;;;4223103;28;20297;-79
2023/11/09 08:45:57;;;;;;;2.50;1.10;;;9.80;99.90;;;;;;4219310;28;20215;-80
2023/11/09 08:47:59;;;;;;;1.97;1.20;;;9.80;99.90;;;;;;4221689;28;20239;-80
2023/11/09 08:50:02;;;;;;;2.43;1.13;;;9.80;99.90;;;;;;4226362;28;20218;-80
2023/11/09 08:52:06;;;;;;;2.17;1.20;;;9.90;99.90;;;;;;4223256;28;20201;-80
2023/11/09 08:54:10;;;;;;;1.73;0.87;;;9.90;99.90;;;;;;4220554;28;20227;-80
2023/11/09 08:56:11;;;;;;;1.77;1.10;;;9.90;99.90;;;;;;4223286;28;20211;-81
2023/11/09 08:58:15;;;;;;;1.20;0.90;;;9.90;99.90;;;;;;4229557;28;20741;-81
2023/11/09 09:00:18;;;;;;;2.90;1.10;;;9.90;99.90;;;;;;4222857;28;20234;-81
2023/11/09 09:02:21;;;;;;;1.73;1.10;;;9.90;99.90;;;;;;4226634;27;20203;-80
2023/11/09 09:04:24;;;;;;;2.50;1.10;;;9.90;99.90;;;;;;4221245;28;20248;-80
2023/11/09 09:06:26;;;;;;;3.50;1.20;;;10.10;99.90;;;;;;4227177;28;20207;-82
2023/11/09 09:08:28;;;;;;;2.07;1.07;;;10.00;99.90;;;;;;4228561;28;20215;-81
2023/11/09 09:10:31;;;;;;;1.97;1.03;;;10.00;99.90;;;;;;4223971;28;20218;-82
2023/11/09 09:12:33;;;;;;;4.27;1.20;;;10.00;99.90;;;;;;4224908;28;20200;-81
2023/11/09 09:14:36;;;;;;;2.20;1.20;;;10.00;99.90;;;;;;4227018;28;20223;-81
2023/11/09 09:16:38;;;;;;;2.53;1.03;;;10.10;99.90;;;;;;4224384;28;20217;-82
2023/11/09 09:18:40;;;;;;;3.93;1.10;;;10.10;99.90;;;;;;4229480;28;20212;-79
2023/11/09 09:20:43;;;;;;;4.60;0.90;;;10.10;99.90;;;;;;4221482;28;20222;-80
2023/11/09 09:22:48;;;;;;;3.37;1.23;;;10.50;99.90;;;;;;4223996;28;20298;-80
2023/11/09 09:24:50;;;;;;;1.33;0.97;;;10.10;99.90;;;;;;4227520;28;20232;-80
2023/11/09 09:26:52;;;;;;;3.33;1.10;;;10.10;99.90;;;;;;4224090;28;20683;-80
2023/11/09 09:28:55;;;;;;;3.03;1.00;;;10.20;99.90;;;;;;4224508;27;20217;-81
2023/11/09 09:30:59;;;;;;;1.40;0.80;;;10.10;99.90;;;;;;4221034;28;20215;-80
2023/11/09 09:33:01;;;;;;;2.53;1.00;;;10.20;99.90;;;;;;4224265;27;20216;-80
2023/11/09 09:35:06;;;;;;;1.07;0.90;;;10.20;99.90;;;;;;4227120;28;20235;-80
2023/11/09 09:37:10;;;;;;;5.37;1.03;;;10.20;99.90;;;;;;4222857;28;20220;-78
2023/11/09 09:39:14;;;;;;;2.13;1.10;;;10.30;99.90;;;;;;4222257;28;20239;-77
2023/11/09 09:41:26;;;;;;;2.50;1.27;;;10.30;99.90;;;;;;4219586;28;20211;-78
2023/11/09 09:43:29;;;;;;;1.70;1.13;;;10.30;99.90;;;;;;4223782;28;20238;-79
2023/11/09 09:45:32;;;;;;;3.50;1.00;;;10.40;99.90;;;;;;4221033;28;20273;-79
2023/11/09 09:47:38;;;;;;;1.23;0.83;;;10.40;99.90;;;;;;4221467;28;20208;-78
2023/11/09 09:49:42;;;;;;;1.50;1.00;;;10.40;99.90;;;;;;4223061;28;20200;-79
2023/11/09 09:51:45;;;;;;;2.37;1.00;;;10.40;99.90;;;;;;4222234;28;20228;-78
2023/11/09 09:53:47;;;;;;;2.93;1.20;;;10.50;99.90;;;;;;4225956;28;20219;-79
2023/11/09 09:55:50;;;;;;;3.77;1.23;;;10.50;99.90;;;;;;4218995;28;20280;-80
2023/11/09 09:57:52;;;;;;;1.50;0.90;;;10.60;99.90;;;;;;4222560;28;20203;-79
2023/11/09 09:59:55;;;;;;;2.63;0.93;;;10.70;99.90;;;;;;4220354;28;20235;-80
2023/11/09 10:01:57;;;;;;;8.13;1.30;;;10.70;99.90;;;;;;4219895;28;20212;-80
2023/11/09 10:04:00;;;;;;;2.07;0.90;;;10.70;99.90;;;;;;4217792;28;20209;-80
2023/11/09 10:06:05;;;;;;;2.23;1.00;;;10.70;99.90;;;;;;4221149;28;20190;-79
2023/11/09 10:08:10;;;;;;;5.63;1.43;;;10.70;99.90;;;;;;4220595;28;20576;-80
2023/11/09 10:10:16;;;;;;;4.17;1.00;;;10.70;99.90;;;;;;4227216;28;20570;-81
2023/11/09 10:12:18;;;;;;;1.60;1.00;;;10.80;99.90;;;;;;4219416;28;20340;-79
2023/11/09 10:14:23;;;;;;;3.10;1.20;;;10.80;99.90;;;;;;4226918;28;20255;-81
2023/11/09 10:16:31;;;;;;;2.03;1.00;;;10.80;99.90;;;;;;4221847;28;20209;-78
2023/11/09 10:18:34;;;;;;;5.57;1.00;;;10.90;99.90;;;;;;4225984;28;20207;-81
2023/11/09 10:20:38;;;;;;;1.37;0.93;;;10.90;99.90;;;;;;4225899;28;20223;-81
2023/11/09 10:22:40;;;;;;;1.97;1.00;;;10.90;99.90;;;;;;4226249;28;20211;-81
2023/11/09 10:24:43;;;;;;;3.07;1.00;;;11.00;99.90;;;;;;4225097;28;20263;-80
2023/11/09 10:26:47;;;;;;;2.37;1.20;;;11.00;99.90;;;;;;4226904;28;20242;-82
2023/11/09 10:28:51;;;;;;;2.83;1.00;;;11.10;99.90;;;;;;4229295;28;20197;-81
2023/11/09 10:30:53;;;;;;;1.77;1.10;;;11.10;99.90;;;;;;4225226;28;20197;-82
2023/11/09 10:33:07;;;;;;;4.30;1.20;;;11.10;99.90;;;;;;4230534;28;20204;-81
2023/11/09 10:35:11;;;;;;;3.20;1.20;;;11.20;99.90;;;;;;4223362;28;20226;-82
2023/11/09 10:37:14;;;;;;;4.50;1.10;;;11.20;99.90;;;;;;4229723;28;20218;-81
2023/11/09 10:39:17;;;;;;;3.20;1.03;;;11.20;99.90;;;;;;4226421;28;20210;-82
2023/11/09 10:41:20;;;;;;;2.67;1.10;;;11.20;99.90;;;;;;4224415;28;20217;-82
2023/11/09 10:43:23;;;;;;;2.07;1.03;;;11.20;99.90;;;;;;4233796;28;20675;-82
2023/11/09 10:45:26;;;;;;;3.43;1.20;;;11.20;99.90;;;;;;4229998;28;20232;-81
2023/11/09 10:47:30;;;;;;;2.17;1.00;;;11.20;99.90;;;;;;4223206;28;20625;-81
2023/11/09 10:49:35;;;;;;;1.77;0.90;;;11.30;99.90;;;;;;4222702;28;20202;-80
2023/11/09 10:51:41;;;;;;;5.13;1.40;;;11.30;99.90;;;;;;4225849;28;20225;-82
2023/11/09 10:53:47;;;;;;;1.73;1.10;;;11.30;99.90;;;;;;4221816;28;20205;-79
2023/11/09 10:55:53;;;;;;;2.70;1.10;;;11.30;99.90;;;;;;4221436;28;20299;-82
2023/11/09 10:57:54;;;;;;;3.17;0.80;;;11.30;99.90;;;;;;4221355;27;20595;-82